Map

Track Data

SID SEASON NUMBER BASIN SUBBASIN NAME ISO_TIME NATURE LAT LON WMO_WIND WMO_PRES WMO_AGENCY TRACK_TYPE DIST2LAND LANDFALL IFLAG USA_AGENCY USA_ATCF_ID USA_LAT USA_LON USA_RECORD USA_STATUS USA_WIND USA_PRES USA_SSHS USA_R34_NE USA_R34_SE USA_R34_SW USA_R34_NW USA_R50_NE USA_R50_SE USA_R50_SW USA_R50_NW USA_R64_NE USA_R64_SE USA_R64_SW USA_R64_NW USA_POCI USA_ROCI USA_RMW USA_EYE TOKYO_LAT TOKYO_LON TOKYO_GRADE TOKYO_WIND TOKYO_PRES TOKYO_R50_DIR TOKYO_R50_LONG TOKYO_R50_SHORT TOKYO_R30_DIR TOKYO_R30_LONG TOKYO_R30_SHORT TOKYO_LAND CMA_LAT CMA_LON CMA_CAT CMA_WIND CMA_PRES HKO_LAT HKO_LON HKO_CAT HKO_WIND HKO_PRES NEWDELHI_LAT NEWDELHI_LON NEWDELHI_GRADE NEWDELHI_WIND NEWDELHI_PRES NEWDELHI_CI NEWDELHI_DP NEWDELHI_POCI REUNION_LAT REUNION_LON REUNION_TYPE REUNION_WIND REUNION_PRES REUNION_TNUM REUNION_CI REUNION_RMW REUNION_R34_NE REUNION_R34_SE REUNION_R34_SW REUNION_R34_NW REUNION_R50_NE REUNION_R50_SE REUNION_R50_SW REUNION_R50_NW REUNION_R64_NE REUNION_R64_SE REUNION_R64_SW REUNION_R64_NW BOM_LAT BOM_LON BOM_TYPE BOM_WIND BOM_PRES BOM_TNUM BOM_CI BOM_RMW BOM_R34_NE BOM_R34_SE BOM_R34_SW BOM_R34_NW BOM_R50_NE BOM_R50_SE BOM_R50_SW BOM_R50_NW BOM_R64_NE BOM_R64_SE BOM_R64_SW BOM_R64_NW BOM_ROCI BOM_POCI BOM_EYE BOM_POS_METHOD BOM_PRES_METHOD NADI_LAT NADI_LON NADI_CAT NADI_WIND NADI_PRES WELLINGTON_LAT WELLINGTON_LON WELLINGTON_WIND WELLINGTON_PRES DS824_LAT DS824_LON DS824_STAGE DS824_WIND DS824_PRES TD9636_LAT TD9636_LON TD9636_STAGE TD9636_WIND TD9636_PRES TD9635_LAT TD9635_LON TD9635_WIND TD9635_PRES TD9635_ROCI NEUMANN_LAT NEUMANN_LON NEUMANN_CLASS NEUMANN_WIND NEUMANN_PRES MLC_LAT MLC_LON MLC_CLASS MLC_WIND MLC_PRES USA_GUST BOM_GUST BOM_GUST_PER REUNION_GUST REUNION_GUST_PER USA_SEAHGT USA_SEARAD_NE USA_SEARAD_SE USA_SEARAD_SW USA_SEARAD_NW STORM_SPEED STORM_DIR
1933255N20087 1933 54 NI BB NOT_NAMED 1933-09-12 00:00:00 TS 20.1000 86.7000 main 22 0 _________O____ -1 20.1000 86.7000 TC 30 5 293
1933255N20087 1933 54 NI BB NOT_NAMED 1933-09-12 03:00:00 TS 20.2068 86.4335 main 0 0 _________PO___ -1 20.2602 86.3002 TC 30 20.1000 86.7000 1 6 291
1933255N20087 1933 54 NI BB NOT_NAMED 1933-09-12 06:00:00 TS 20.3328 86.0596 main 0 0 _________OP___ -1 20.4000 85.9000 TC 30 20.2321 86.2989 1 8 288
1933255N20087 1933 54 NI BB NOT_NAMED 1933-09-12 09:00:00 TS 20.4446 85.6705 main 0 0 _________PP___ -1 20.5074 85.4999 TC 30 20.3610 85.8980 1 7 286
1933255N20087 1933 54 NI BB NOT_NAMED 1933-09-12 12:00:00 TS 20.5422 85.2990 main 0 0 _________OP___ -1 20.6000 85.1000 TC 30 20.4844 85.4980 1 7 286
1933255N20087 1933 54 NI BB NOT_NAMED 1933-09-12 15:00:00 TS 20.6537 84.9037 main 0 0 _________PO___ -1 20.7074 84.7075 TC 30 20.6000 85.1000 1 8 286
1933255N20087 1933 54 NI BB NOT_NAMED 1933-09-12 18:00:00 TS 20.7525 84.5012 main 0 0 _________OP___ -1 20.8000 84.3000 TC 30 20.7050 84.7025 1 8 283
1933255N20087 1933 54 NI BB NOT_NAMED 1933-09-12 21:00:00 TS 20.8294 84.0838 main 0 0 _________PP___ -1 20.8648 83.8725 TC 30 20.7941 84.2951 1 8 279
1933255N20087 1933 54 NI BB NOT_NAMED 1933-09-13 00:00:00 TS 20.8806 83.6326 main 0 0 _________OP___ -1 20.9000 83.4000 TC 30 20.8611 83.8651 1 9 275
1933255N20087 1933 54 NI BB NOT_NAMED 1933-09-13 03:00:00 TS 20.9075 83.1325 main 0 0 _________PO___ -1 20.9150 82.8650 TC 30 20.9000 83.4000 1 10 270
1933255N20087 1933 54 NI BB NOT_NAMED 1933-09-13 06:00:00 TS 20.8878 82.5863 main 0 0 _________OP___ -1 20.9000 82.3000 TC 30 20.8756 82.8727 1 10 266
1933255N20087 1933 54 NI BB NOT_NAMED 1933-09-13 09:00:00 TS 20.8314 82.0278 main 0 0 _________PP___ -1 20.8349 81.7422 TC 30 20.8279 82.3134 1 10 265
1933255N20087 1933 54 NI BB NOT_NAMED 1933-09-13 12:00:00 TS 20.7956 81.4738 main 0 0 _________OP___ -1 20.8000 81.2000 TC 30 20.7912 81.7476 1 10 270
1933255N20087 1933 54 NI BB NOT_NAMED 1933-09-13 15:00:00 TS 20.8312 80.9425 main 0 0 _________PO___ -1 20.8624 80.6850 TC 30 20.8000 81.2000 1 10 279
1933255N20087 1933 54 NI BB NOT_NAMED 1933-09-13 18:00:00 TS 20.9457 80.4358 main 0 0 _________OP___ -1 21.0000 80.2000 TC 30 20.8914 80.6716 1 10 287
1933255N20087 1933 54 NI BB NOT_NAMED 1933-09-13 21:00:00 TS 21.1087 79.9442 main 0 0 _________PP___ -1 21.1850 79.7201 TC 30 21.0324 80.1683 1 9 292
1933255N20087 1933 54 NI BB NOT_NAMED 1933-09-14 00:00:00 TS 21.3036 79.5029 main 0 0 _________OP___ -1 21.4000 79.3000 TC 30 21.2072 79.7058 1 9 297
1933255N20087 1933 54 NI BB NOT_NAMED 1933-09-14 03:00:00 TS 21.4999 79.1349 main 0 0 _________PO___ -1 21.5998 78.9699 TC 30 21.4000 79.3000 1 7 302
1933255N20087 1933 54 NI BB NOT_NAMED 1933-09-14 06:00:00 TS 21.6884 78.8295 main 0 0 _________OP___ -1 21.8000 78.7000 TC 30 21.5768 78.9590 1 7 305
1933255N20087 1933 54 NI BB NOT_NAMED 1933-09-14 09:00:00 TS 21.8770 78.5621 main 0 0 _________PP___ -1 21.9849 78.4498 TC 30 21.7692 78.6745 1 6 310
1933255N20087 1933 54 NI BB NOT_NAMED 1933-09-14 12:00:00 TS 22.0885 78.3139 main 0 0 _________OP___ -1 22.2000 78.2000 TC 30 21.9770 78.4277 1 7 314
1933255N20087 1933 54 NI BB NOT_NAMED 1933-09-14 15:00:00 TS 22.3500 78.0426 main 0 0 _________PO___ -1 22.5001 77.8852 TC 30 22.2000 78.2000 1 8 317
1933255N20087 1933 54 NI AS NOT_NAMED 1933-09-14 18:00:00 TS 22.6381 77.7623 main 0 0 _________OP___ -1 22.8000 77.6000 TC 30 22.4763 77.9245 1 7 320
1933255N20087 1933 54 NI AS NOT_NAMED 1933-09-14 21:00:00 TS 22.9025 77.5365 main 0 0 _________PP___ -1 23.0449 77.4049 TC 30 22.7601 77.6682 1 6 323
1933255N20087 1933 54 NI AS NOT_NAMED 1933-09-15 00:00:00 TS 23.1069 77.3763 main 0 0 _________OP___ -1 23.2000 77.3000 TC 30 23.0138 77.4526 1 4 324
1933255N20087 1933 54 NI AS NOT_NAMED 1933-09-15 03:00:00 TS 23.2150 77.2887 main 0 0 _________PO___ -1 23.2300 77.2774 TC 30 23.2000 77.3000 1 2 322
1933255N20087 1933 54 NI AS NOT_NAMED 1933-09-15 06:00:00 TS 23.2358 77.2674 main 0 0 _________OP___ -1 23.2000 77.3000 TC 30 23.2717 77.2348 1 0 0
1933255N20087 1933 54 NI AS NOT_NAMED 1933-09-15 09:00:00 TS 23.2374 77.2660 main 0 0 _________PP___ -1 23.2000 77.3000 TC 30 23.2748 77.2320 1 0 0
1933255N20087 1933 54 NI AS NOT_NAMED 1933-09-15 12:00:00 TS 23.2203 77.2816 main 0 0 _________OP___ -1 23.2000 77.3000 TC 30 23.2405 77.2632 1 0 132
1933255N20087 1933 54 NI AS NOT_NAMED 1933-09-15 15:00:00 TS 23.2000 77.3000 main 0 0 _________PO___ -1 23.2000 77.3000 TC 30 23.2000 77.3000 1 0 137
1933255N20087 1933 54 NI AS NOT_NAMED 1933-09-15 18:00:00 TS 23.1797 77.3121 main 0 0 _________OP___ -1 23.2000 77.3000 TC 30 23.1593 77.3242 1 1 160
1933255N20087 1933 54 NI AS NOT_NAMED 1933-09-15 21:00:00 TS 23.1474 77.3298 main 0 0 _________PP___ -1 23.1700 77.3150 TC 30 23.1249 77.3446 1 0 0
1933255N20087 1933 54 NI AS NOT_NAMED 1933-09-16 00:00:00 TS 23.1640 77.3214 main 0 0 _________OP___ -1 23.2000 77.3000 TC 30 23.1280 77.3428 1 1 336
1933255N20087 1933 54 NI AS NOT_NAMED 1933-09-16 03:00:00 TS 23.2775 77.2650 main 0 0 _________PO___ -1 23.3550 77.2299 TC 30 23.2000 77.3000 1 4 334
1933255N20087 1933 54 NI AS NOT_NAMED 1933-09-16 06:00:00 TS 23.4891 77.1487 main 0 0 _________OP___ -1 23.6000 77.1000 TC 30 23.3782 77.1974 1 5 332
1933255N20087 1933 54 NI AS NOT_NAMED 1933-09-16 09:00:00 TS 23.7588 76.9839 main 0 0 _________PP___ -1 23.8925 76.9151 TC 30 23.6251 77.0528 1 7 330
1933255N20087 1933 54 NI AS NOT_NAMED 1933-09-16 12:00:00 TS 24.0547 76.7909 main 0 0 _________OP___ -1 24.2000 76.7000 TC 30 23.9094 76.8818 1 7 328
1933255N20087 1933 54 NI AS NOT_NAMED 1933-09-16 15:00:00 TS 24.3288 76.5962 main 0 0 _________PO___ -1 24.4575 76.4924 TC 30 24.2000 76.7000 1 6 326
1933255N20087 1933 54 NI AS NOT_NAMED 1933-09-16 18:00:00 TS 24.5811 76.4081 main 0 0 _________OP___ -1 24.7000 76.3000 TC 30 24.4623 76.5161 1 6 327
1933255N20087 1933 54 NI AS NOT_NAMED 1933-09-16 21:00:00 TS 24.8438 76.2314 main 0 0 _________PP___ -1 24.9650 76.1350 TC 30 24.7226 76.3278 1 6 329
1933255N20087 1933 54 NI AS NOT_NAMED 1933-09-17 00:00:00 TS 25.0858 76.0753 main 0 0 _________OP___ -1 25.2000 76.0000 TC 30 24.9717 76.1505 1 5 329
1933255N20087 1933 54 NI AS NOT_NAMED 1933-09-17 03:00:00 TS 25.2787 75.9425 main 0 0 _________PO___ -1 25.3575 75.8849 TC 30 25.2000 76.0000 1 4 330
1933255N20087 1933 54 NI AS NOT_NAMED 1933-09-17 06:00:00 TS 25.4462 75.8459 main 0 0 _________OP___ -1 25.5000 75.8000 TC 30 25.3924 75.8918 1 4 337
1933255N20087 1933 54 NI AS NOT_NAMED 1933-09-17 09:00:00 TS 25.6287 75.7773 main 0 0 _________PP___ -1 25.6925 75.7425 TC 30 25.5649 75.8120 1 4 343
1933255N20087 1933 54 NI AS NOT_NAMED 1933-09-17 12:00:00 TS 25.8150 75.7256 main 0 0 _________OP___ -1 25.9000 75.7000 TC 30 25.7299 75.7513 1 4 347
1933255N20087 1933 54 NI AS NOT_NAMED 1933-09-17 15:00:00 TS 26.0000 75.6750 main 0 0 _________PO___ -1 26.1000 75.6500 TC 30 25.9000 75.7000 1 4 345
1933255N20087 1933 54 NI AS NOT_NAMED 1933-09-17 18:00:00 TS 26.1883 75.6173 main 0 0 _________OP___ -1 26.3000 75.6000 TC 30 26.0766 75.6347 1 4 345
1933255N20087 1933 54 NI AS NOT_NAMED 1933-09-17 21:00:00 TS 26.3738 75.5600 main 0 0 _________PP___ -1 26.4850 75.5425 TC 30 26.2625 75.5775 1 4 347
1933255N20087 1933 54 NI AS NOT_NAMED 1933-09-18 00:00:00 TS 26.5836 75.5158 main 0 0 _________OP___ -1 26.7000 75.5000 TC 30 26.4672 75.5316 1 5 354
1933255N20087 1933 54 NI AS NOT_NAMED 1933-09-18 03:00:00 TS 26.8425 75.4962 main 0 0 _________PO___ -1 26.9850 75.4925 TC 30 26.7000 75.5000 1 6 357
1933255N20087 1933 54 NI AS NOT_NAMED 1933-09-18 06:00:00 TS 27.1397 75.4848 main 0 0 _________OP___ -1 27.3000 75.5000 TC 30 26.9793 75.4695 1 6 358
1933255N20087 1933 54 NI AS NOT_NAMED 1933-09-18 09:00:00 TS 27.4462 75.4739 main 0 0 _________PP___ -1 27.6075 75.4926 TC 30 27.2849 75.4553 1 6 0
1933255N20087 1933 54 NI AS NOT_NAMED 1933-09-18 12:00:00 TS 27.7490 75.4817 main 0 0 _________OP___ -1 27.9000 75.5000 TC 30 27.5981 75.4633 1 6 4
1933255N20087 1933 54 NI AS NOT_NAMED 1933-09-18 15:00:00 TS 28.0287 75.5138 main 0 0 _________PO___ -1 28.1575 75.5276 TC 30 27.9000 75.5000 1 5 10
1933255N20087 1933 54 NI AS NOT_NAMED 1933-09-18 18:00:00 TS 28.2722 75.5823 main 0 0 _________OP___ -1 28.4000 75.6000 TC 30 28.1763 75.5690 1 5 18
1933255N20087 1933 54 NI AS NOT_NAMED 1933-09-18 21:00:00 TS 28.5171 75.6916 main 0 0 _________PP___ -1 28.6476 75.7323 TC 30 28.4301 75.6644 1 5 23
1933255N20087 1933 54 NI AS NOT_NAMED 1933-09-19 00:00:00 TS 28.7459 75.8184 main 0 0 _________OP___ -1 28.9000 75.9000 TC 30 28.6689 75.7776 1 4 26
1933255N20087 1933 54 NI AS NOT_NAMED 1933-09-19 03:00:00 NR 28.9000 75.9000 main 0 __________O___ -1 TC 28.9000 75.9000 1 3 23

About IBTrACS Database

This database is a web-friendly format of International Best Track Archive for Climate Stewardship (IBTrACS), a global best track data archive curated by NOAA dating back to 1842.

Updated: 2021-10-19